Time;durP1;ratioP1;P1;durP2;ratioP2;P2;SDS_P1;SDS_P2;PMS_P1;PMS_P2;Temp;Humidity;BMP_temperature;BMP_pressure;BME280_temperature;BME280_humidity;BME280_pressure;Samples;Min_cycle;Max_cycle;Signal;HPM_P1;HPM_P2
2022/01/09 00:01:29;;;;;;;10.20;6.53;;;;;;;;;;5075840;28;20044;-80
2022/01/09 00:03:56;;;;;;;7.55;5.57;;;;;;;;;;5092307;28;20032;-78
2022/01/09 00:06:22;;;;;;;8.05;5.85;;;;;;;;;;5091085;28;20400;-78
2022/01/09 00:08:48;;;;;;;7.68;5.00;;;;;;;;;;5075887;28;20039;-80
2022/01/09 00:11:15;;;;;;;7.45;5.63;;;;;;;;;;5075849;28;20048;-79
2022/01/09 00:13:41;;;;;;;9.75;6.47;;;;;;;;;;5092031;28;20061;-79
2022/01/09 00:16:07;;;;;;;8.35;5.68;;;;;;;;;;5091993;28;20094;-80
2022/01/09 00:18:33;;;;;;;8.60;5.70;;;;;;;;;;5092340;28;20051;-79
2022/01/09 00:21:05;;;;;;;9.32;6.78;;;;;;;;;;5092299;28;20403;-80
2022/01/09 00:23:31;;;;;;;7.32;5.35;;;;;;;;;;5075595;28;20085;-78
2022/01/09 00:25:57;;;;;;;9.27;6.03;;;;;;;;;;5075230;28;20605;-79
2022/01/09 00:28:23;;;;;;;9.82;6.32;;;;;;;;;;5092128;28;20047;-79
2022/01/09 00:30:49;;;;;;;9.35;5.70;;;;;;;;;;5092253;28;20491;-80
2022/01/09 00:33:15;;;;;;;10.32;6.88;;;;;;;;;;5075327;28;20047;-79
2022/01/09 00:35:41;;;;;;;7.75;6.05;;;;;;;;;;5091655;28;20122;-79
2022/01/09 00:38:07;;;;;;;10.00;6.63;;;;;;;;;;5091838;28;20063;-78
2022/01/09 00:40:33;;;;;;;8.90;6.40;;;;;;;;;;5091532;28;20122;-80
2022/01/09 00:42:59;;;;;;;8.63;6.28;;;;;;;;;;5092049;28;20036;-79
2022/01/09 00:45:25;;;;;;;10.38;6.90;;;;;;;;;;5075386;28;20075;-79
2022/01/09 00:47:51;;;;;;;9.90;6.78;;;;;;;;;;5075091;28;20057;-80
2022/01/09 00:50:17;;;;;;;12.90;6.88;;;;;;;;;;5074786;28;20569;-80
2022/01/09 00:52:43;;;;;;;8.18;5.60;;;;;;;;;;5091601;28;20174;-79
2022/01/09 00:55:09;;;;;;;8.52;6.40;;;;;;;;;;5074993;28;20068;-79
2022/01/09 00:57:35;;;;;;;8.45;6.28;;;;;;;;;;5091386;28;20054;-79
2022/01/09 01:00:01;;;;;;;9.05;5.93;;;;;;;;;;5074793;28;20129;-79
2022/01/09 01:02:27;;;;;;;7.25;5.43;;;;;;;;;;5074457;28;20550;-80
2022/01/09 01:04:53;;;;;;;10.32;5.88;;;;;;;;;;5074291;28;20038;-80
2022/01/09 01:07:20;;;;;;;8.10;6.03;;;;;;;;;;5074393;28;20032;-81
2022/01/09 01:09:46;;;;;;;9.10;5.70;;;;;;;;;;5074289;28;20438;-79
2022/01/09 01:12:13;;;;;;;10.57;5.68;;;;;;;;;;5074616;28;20050;-79
2022/01/09 01:14:39;;;;;;;8.70;6.05;;;;;;;;;;5074528;28;20105;-79
2022/01/09 01:17:05;;;;;;;8.63;6.07;;;;;;;;;;5090821;28;20154;-80
2022/01/09 01:19:31;;;;;;;9.40;6.53;;;;;;;;;;5079087;28;20474;-80
2022/01/09 01:21:58;;;;;;;8.98;6.30;;;;;;;;;;5095529;28;20127;-79
2022/01/09 01:24:24;;;;;;;8.30;5.75;;;;;;;;;;5077645;28;20089;-80
2022/01/09 01:26:50;;;;;;;10.00;6.13;;;;;;;;;;5096204;28;20430;-79
2022/01/09 01:29:18;;;;;;;9.00;6.07;;;;;;;;;;5078124;28;20459;-79
2022/01/09 01:31:44;;;;;;;10.68;6.82;;;;;;;;;;5095123;28;20040;-80
2022/01/09 01:34:12;;;;;;;10.05;6.32;;;;;;;;;;5096266;28;20436;-79
2022/01/09 01:36:38;;;;;;;9.60;6.07;;;;;;;;;;5095068;28;20051;-80
2022/01/09 01:39:04;;;;;;;10.43;6.40;;;;;;;;;;5095086;28;20050;-79
2022/01/09 01:41:30;;;;;;;7.72;5.75;;;;;;;;;;5094676;28;20123;-80
2022/01/09 01:43:56;;;;;;;9.63;5.55;;;;;;;;;;5094554;28;20036;-81
2022/01/09 01:46:22;;;;;;;10.82;6.72;;;;;;;;;;5094429;28;20063;-79
2022/01/09 01:48:48;;;;;;;8.82;6.03;;;;;;;;;;5094698;28;20032;-79
2022/01/09 01:51:14;;;;;;;8.95;6.53;;;;;;;;;;5078247;28;20048;-80
2022/01/09 01:53:41;;;;;;;10.88;6.68;;;;;;;;;;5094225;28;20511;-79
2022/01/09 01:56:07;;;;;;;8.45;5.90;;;;;;;;;;5094004;28;20044;-79
2022/01/09 01:58:35;;;;;;;9.48;6.45;;;;;;;;;;5094229;28;20075;-79
2022/01/09 02:01:01;;;;;;;9.23;6.60;;;;;;;;;;5093734;28;20126;-79
2022/01/09 02:03:27;;;;;;;11.48;7.25;;;;;;;;;;5094059;28;20044;-78
2022/01/09 02:05:54;;;;;;;11.02;6.72;;;;;;;;;;5076989;28;20036;-79
2022/01/09 02:08:20;;;;;;;11.20;6.75;;;;;;;;;;5094114;28;20036;-79
2022/01/09 02:10:46;;;;;;;9.02;6.07;;;;;;;;;;5077595;28;20047;-77
2022/01/09 02:13:12;;;;;;;10.68;6.68;;;;;;;;;;5094153;28;20135;-79
2022/01/09 02:15:42;;;;;;;15.15;7.25;;;;;;;;;;5093919;28;20044;-80
2022/01/09 02:18:09;;;;;;;10.90;7.40;;;;;;;;;;5093908;28;20043;-79
2022/01/09 02:20:36;;;;;;;12.35;7.75;;;;;;;;;;5077442;28;20063;-79
2022/01/09 02:23:03;;;;;;;14.18;7.70;;;;;;;;;;5093724;28;20471;-80
2022/01/09 02:25:29;;;;;;;15.07;8.82;;;;;;;;;;5093730;28;20055;-79
2022/01/09 02:27:56;;;;;;;13.85;8.02;;;;;;;;;;5093404;28;20420;-79
2022/01/09 02:30:22;;;;;;;12.45;7.78;;;;;;;;;;5092163;28;20089;-79
2022/01/09 02:32:48;;;;;;;13.20;7.93;;;;;;;;;;5076293;28;20123;-78
2022/01/09 02:35:14;;;;;;;14.75;8.80;;;;;;;;;;5076621;28;20610;-79
2022/01/09 02:37:40;;;;;;;13.65;8.93;;;;;;;;;;5093368;28;20040;-77
2022/01/09 02:40:07;;;;;;;14.07;7.65;;;;;;;;;;5093127;28;20479;-79
2022/01/09 02:42:34;;;;;;;16.13;8.75;;;;;;;;;;5092838;28;20046;-78
2022/01/09 02:45:00;;;;;;;14.10;8.10;;;;;;;;;;5093195;28;20499;-78
2022/01/09 02:47:29;;;;;;;12.45;8.10;;;;;;;;;;5076125;28;20076;-79
2022/01/09 02:49:57;;;;;;;15.40;8.93;;;;;;;;;;5093315;28;20040;-78
2022/01/09 02:52:33;;;;;;;14.32;8.75;;;;;;;;;;5093037;28;20130;-78
2022/01/09 02:55:12;;;;;;;16.98;8.57;;;;;;;;;;5093097;28;20044;-78
2022/01/09 02:57:42;;;;;;;15.05;8.70;;;;;;;;;;5093208;28;20048;-77
2022/01/09 03:00:09;;;;;;;17.63;9.00;;;;;;;;;;5076042;28;20040;-78
2022/01/09 03:02:35;;;;;;;14.82;8.63;;;;;;;;;;5075753;28;20491;-78
2022/01/09 03:05:01;;;;;;;16.08;8.73;;;;;;;;;;5092574;28;20533;-78
2022/01/09 03:07:27;;;;;;;14.35;8.48;;;;;;;;;;5092588;28;20040;-78
2022/01/09 03:09:53;;;;;;;20.70;9.00;;;;;;;;;;5076053;28;20492;-78
2022/01/09 03:12:19;;;;;;;12.30;7.05;;;;;;;;;;5092896;28;20036;-78
2022/01/09 03:14:46;;;;;;;12.52;6.35;;;;;;;;;;5078814;28;20100;-78
2022/01/09 03:17:12;;;;;;;9.90;5.63;;;;;;;;;;5078929;28;20040;-78
2022/01/09 03:19:38;;;;;;;11.82;5.82;;;;;;;;;;5095520;28;20039;-80
2022/01/09 03:22:04;;;;;;;8.82;5.10;;;;;;;;;;5094831;28;20043;-79
2022/01/09 03:24:30;;;;;;;9.43;4.72;;;;;;;;;;5095765;28;20105;-78
2022/01/09 03:26:56;;;;;;;7.97;4.72;;;;;;;;;;5095413;28;20411;-80
2022/01/09 03:29:22;;;;;;;8.52;4.07;;;;;;;;;;5093481;28;20093;-78
2022/01/09 03:31:48;;;;;;;9.65;4.63;;;;;;;;;;5093604;28;20048;-80
2022/01/09 03:34:14;;;;;;;8.82;4.45;;;;;;;;;;5092892;28;20098;-78
2022/01/09 03:36:40;;;;;;;8.30;3.78;;;;;;;;;;5075407;28;20062;-78
2022/01/09 03:39:06;;;;;;;7.72;3.78;;;;;;;;;;5094211;28;20043;-80
2022/01/09 03:41:32;;;;;;;7.38;3.92;;;;;;;;;;5097155;28;20082;-78
2022/01/09 03:43:58;;;;;;;9.60;4.07;;;;;;;;;;5077971;28;20036;-76
2022/01/09 03:46:24;;;;;;;8.07;3.85;;;;;;;;;;5095540;28;20044;-80
2022/01/09 03:48:50;;;;;;;7.38;3.72;;;;;;;;;;5092760;28;20039;-78
2022/01/09 03:51:16;;;;;;;9.13;4.47;;;;;;;;;;5092569;28;20408;-78
2022/01/09 03:53:42;;;;;;;8.55;3.83;;;;;;;;;;5075447;28;20468;-78
2022/01/09 03:56:08;;;;;;;11.02;4.53;;;;;;;;;;5092018;28;20121;-79
2022/01/09 03:58:36;;;;;;;9.88;3.88;;;;;;;;;;5074998;28;20065;-78
2022/01/09 04:01:03;;;;;;;8.27;4.65;;;;;;;;;;5091523;28;20047;-78
2022/01/09 04:03:29;;;;;;;7.70;3.80;;;;;;;;;;5075037;28;20036;-78
2022/01/09 04:06:00;;;;;;;12.48;4.35;;;;;;;;;;5092065;28;20043;-80
2022/01/09 04:08:26;;;;;;;;;;;;;;;;;;5075116;28;20461;-78
2022/01/09 04:10:52;;;;;;;3.05;1.77;;;;;;;;;;5074400;28;19927;-78
2022/01/09 04:13:18;;;;;;;9.63;4.28;;;;;;;;;;5091250;28;20139;-79
2022/01/09 04:15:49;;;;;;;10.13;3.13;;;;;;;;;;5074464;28;20043;-77
2022/01/09 04:18:19;;;;;;;7.30;3.42;;;;;;;;;;5074344;28;20036;-78
2022/01/09 04:20:45;;;;;;;6.40;2.92;;;;;;;;;;5074571;28;20067;-79
2022/01/09 04:23:14;;;;;;;11.43;3.85;;;;;;;;;;5091257;28;20074;-78
2022/01/09 04:25:41;;;;;;;9.35;2.95;;;;;;;;;;5074562;28;20044;-79
2022/01/09 04:28:07;;;;;;;12.88;3.35;;;;;;;;;;5091418;28;20135;-80
2022/01/09 04:30:33;;;;;;;11.77;3.65;;;;;;;;;;5092631;28;20040;-80
2022/01/09 04:32:59;;;;;;;15.93;3.75;;;;;;;;;;5074628;28;20050;-75
2022/01/09 04:35:25;;;;;;;20.42;3.30;;;;;;;;;;5092999;28;20484;-79
2022/01/09 04:37:52;;;;;;;12.55;3.40;;;;;;;;;;5075084;28;20036;-78
2022/01/09 04:40:20;;;;;;;13.68;2.97;;;;;;;;;;5091426;28;20044;-80
2022/01/09 04:42:50;;;;;;;16.85;3.90;;;;;;;;;;5074701;28;20062;-79
2022/01/09 04:45:18;;;;;;;12.43;2.58;;;;;;;;;;5091998;28;20052;-79
2022/01/09 04:47:47;;;;;;;17.90;2.63;;;;;;;;;;5091835;28;20129;-78
2022/01/09 04:50:15;;;;;;;17.48;3.13;;;;;;;;;;5088906;28;20097;-78
2022/01/09 04:52:42;;;;;;;23.45;3.25;;;;;;;;;;5086812;28;20403;-81
2022/01/09 04:55:08;;;;;;;18.75;3.08;;;;;;;;;;5088020;28;20044;-81
2022/01/09 04:57:34;;;;;;;16.85;2.50;;;;;;;;;;5071520;28;20130;-80
2022/01/09 05:00:00;;;;;;;20.10;2.67;;;;;;;;;;5071286;28;20387;-80
2022/01/09 05:02:26;;;;;;;21.73;3.47;;;;;;;;;;5087976;28;20506;-80
2022/01/09 05:04:52;;;;;;;17.83;2.78;;;;;;;;;;5088094;28;20087;-79
2022/01/09 05:07:18;;;;;;;22.30;3.65;;;;;;;;;;5071028;28;20040;-77
2022/01/09 05:09:44;;;;;;;14.95;2.47;;;;;;;;;;5071167;28;20407;-79
2022/01/09 05:12:10;;;;;;;17.63;3.03;;;;;;;;;;5070960;28;20071;-80
2022/01/09 05:14:36;;;;;;;12.15;1.85;;;;;;;;;;5070801;28;20063;-80
2022/01/09 05:17:02;;;;;;;9.10;2.05;;;;;;;;;;5087665;28;20085;-82
2022/01/09 05:19:30;;;;;;;13.80;2.47;;;;;;;;;;5087466;28;20040;-82
2022/01/09 05:21:57;;;;;;;14.27;2.72;;;;;;;;;;5088698;28;20052;-79
2022/01/09 05:24:24;;;;;;;16.92;2.90;;;;;;;;;;5071037;28;20522;-79
2022/01/09 05:26:50;;;;;;;12.65;2.53;;;;;;;;;;5070291;28;20487;-80
2022/01/09 05:29:16;;;;;;;12.20;2.75;;;;;;;;;;5087057;28;20044;-80
2022/01/09 05:31:43;;;;;;;18.60;2.15;;;;;;;;;;5090537;28;20043;-78
2022/01/09 05:34:10;;;;;;;14.57;2.85;;;;;;;;;;5074800;28;20351;-81
2022/01/09 05:36:36;;;;;;;11.23;1.77;;;;;;;;;;5074242;28;20075;-79
2022/01/09 05:39:03;;;;;;;22.42;2.58;;;;;;;;;;5075320;28;20040;-77
2022/01/09 05:41:29;;;;;;;16.23;2.58;;;;;;;;;;5091187;28;20040;-81
2022/01/09 05:43:55;;;;;;;15.93;2.83;;;;;;;;;;5091214;28;20548;-79
2022/01/09 05:46:21;;;;;;;11.20;2.13;;;;;;;;;;5090790;28;20040;-78
2022/01/09 05:48:47;;;;;;;11.60;2.53;;;;;;;;;;5074891;28;20123;-81
2022/01/09 05:51:13;;;;;;;13.57;1.67;;;;;;;;;;5090887;28;20132;-79
2022/01/09 05:53:39;;;;;;;18.92;2.75;;;;;;;;;;5074505;28;20117;-81
2022/01/09 05:56:05;;;;;;;12.13;2.10;;;;;;;;;;5074361;28;20035;-79
2022/01/09 05:58:33;;;;;;;8.27;2.15;;;;;;;;;;5074494;28;20036;-80
2022/01/09 06:00:59;;;;;;;14.70;2.08;;;;;;;;;;5091419;28;20381;-80
2022/01/09 06:03:25;;;;;;;13.60;1.80;;;;;;;;;;5091800;28;20122;-81
2022/01/09 06:05:51;;;;;;;11.25;2.42;;;;;;;;;;5094367;28;20039;-82
2022/01/09 06:08:17;;;;;;;14.55;2.75;;;;;;;;;;5094875;28;20035;-80
2022/01/09 06:10:43;;;;;;;17.02;3.00;;;;;;;;;;5094852;28;20097;-80
2022/01/09 06:13:09;;;;;;;11.10;1.92;;;;;;;;;;5094022;28;20518;-80
2022/01/09 06:15:35;;;;;;;7.88;1.63;;;;;;;;;;5094666;28;20043;-80
2022/01/09 06:18:01;;;;;;;9.85;1.73;;;;;;;;;;5077394;28;20051;-80
2022/01/09 06:20:27;;;;;;;17.00;2.97;;;;;;;;;;5094724;28;20397;-81
2022/01/09 06:22:53;;;;;;;14.45;3.03;;;;;;;;;;5094221;28;20047;-80
2022/01/09 06:25:21;;;;;;;17.40;2.28;;;;;;;;;;5077261;28;20393;-82
2022/01/09 06:27:47;;;;;;;21.38;2.80;;;;;;;;;;5077402;28;20040;-78
2022/01/09 06:30:13;;;;;;;11.85;1.63;;;;;;;;;;5093860;28;20377;-79
2022/01/09 06:32:39;;;;;;;12.60;2.08;;;;;;;;;;5094695;28;20518;-79
2022/01/09 06:35:05;;;;;;;12.60;1.65;;;;;;;;;;5077863;28;20035;-81
2022/01/09 06:37:31;;;;;;;18.17;2.38;;;;;;;;;;5094025;28;20059;-78
2022/01/09 06:39:57;;;;;;;8.05;1.42;;;;;;;;;;5077576;28;20044;-79
2022/01/09 06:42:23;;;;;;;16.65;2.47;;;;;;;;;;5076528;28;20036;-79
2022/01/09 06:44:49;;;;;;;13.27;2.40;;;;;;;;;;5093881;28;20097;-81
2022/01/09 06:47:15;;;;;;;12.88;2.08;;;;;;;;;;5093948;28;20096;-77
2022/01/09 06:49:41;;;;;;;10.93;2.05;;;;;;;;;;5077722;28;20123;-78
2022/01/09 06:52:07;;;;;;;16.08;2.25;;;;;;;;;;5093906;28;20047;-81
2022/01/09 06:54:33;;;;;;;16.00;1.60;;;;;;;;;;5094446;28;20044;-79
2022/01/09 06:56:59;;;;;;;11.35;1.67;;;;;;;;;;5093887;28;20373;-80
2022/01/09 06:59:25;;;;;;;8.80;1.70;;;;;;;;;;5077028;28;20490;-80
2022/01/09 07:01:51;;;;;;;8.35;1.58;;;;;;;;;;5093928;28;20051;-79
2022/01/09 07:04:17;;;;;;;10.95;1.52;;;;;;;;;;5077239;28;20519;-79
2022/01/09 07:06:43;;;;;;;13.07;2.22;;;;;;;;;;5093888;28;20116;-79
2022/01/09 07:09:09;;;;;;;10.48;1.38;;;;;;;;;;5094371;28;20440;-77
2022/01/09 07:11:35;;;;;;;13.55;2.22;;;;;;;;;;5076725;28;20059;-76
2022/01/09 07:14:01;;;;;;;12.57;2.10;;;;;;;;;;5076184;28;20500;-79
2022/01/09 07:16:27;;;;;;;10.25;1.83;;;;;;;;;;5076126;28;20040;-79
2022/01/09 07:18:53;;;;;;;12.63;2.35;;;;;;;;;;5092956;28;20036;-80
2022/01/09 07:21:19;;;;;;;12.25;2.00;;;;;;;;;;5076364;28;20510;-81
2022/01/09 07:23:45;;;;;;;9.88;1.67;;;;;;;;;;5093006;28;20042;-78
2022/01/09 07:26:11;;;;;;;13.55;2.05;;;;;;;;;;5093438;28;20040;-81
2022/01/09 07:28:37;;;;;;;14.27;1.85;;;;;;;;;;5076363;28;20040;-79
2022/01/09 07:31:03;;;;;;;11.77;1.67;;;;;;;;;;5093169;28;20127;-80
2022/01/09 07:33:30;;;;;;;12.73;2.45;;;;;;;;;;5092570;28;20039;-79
2022/01/09 07:35:56;;;;;;;10.07;2.53;;;;;;;;;;5092779;28;20094;-78
2022/01/09 07:38:22;;;;;;;11.60;1.70;;;;;;;;;;5093085;28;20051;-79
2022/01/09 07:40:49;;;;;;;11.20;1.50;;;;;;;;;;5092866;28;20036;-79
2022/01/09 07:43:15;;;;;;;9.25;1.83;;;;;;;;;;5092330;28;20040;-79
2022/01/09 07:45:41;;;;;;;10.77;1.80;;;;;;;;;;5092126;28;20092;-79
2022/01/09 07:48:07;;;;;;;10.30;1.75;;;;;;;;;;5092005;28;20127;-77
2022/01/09 07:50:33;;;;;;;15.88;2.33;;;;;;;;;;5074894;28;20043;-78
2022/01/09 07:52:59;;;;;;;8.88;1.90;;;;;;;;;;5091555;28;20503;-79
2022/01/09 07:55:25;;;;;;;13.82;2.33;;;;;;;;;;5075500;28;20043;-77
2022/01/09 07:57:51;;;;;;;14.18;2.22;;;;;;;;;;5075441;28;20044;-80
2022/01/09 08:00:18;;;;;;;7.07;1.83;;;;;;;;;;5075301;28;20422;-76
2022/01/09 08:02:45;;;;;;;12.48;1.83;;;;;;;;;;5092006;28;20434;-79
2022/01/09 08:05:11;;;;;;;10.25;1.60;;;;;;;;;;5074918;28;20139;-79
2022/01/09 08:07:37;;;;;;;11.07;1.45;;;;;;;;;;5074795;28;20127;-78
2022/01/09 08:10:04;;;;;;;13.07;1.88;;;;;;;;;;5075143;28;20122;-77
2022/01/09 08:12:30;;;;;;;5.22;1.77;;;;;;;;;;5092596;28;20039;-78
2022/01/09 08:14:56;;;;;;;11.68;1.80;;;;;;;;;;5075645;28;20241;-77
2022/01/09 08:17:22;;;;;;;7.97;1.58;;;;;;;;;;5075213;28;20047;-77
2022/01/09 08:19:48;;;;;;;6.95;1.73;;;;;;;;;;5075848;28;20131;-80
2022/01/09 08:22:14;;;;;;;11.30;2.05;;;;;;;;;;5074551;28;20048;-79
2022/01/09 08:24:40;;;;;;;5.80;1.40;;;;;;;;;;5092389;28;20032;-80
2022/01/09 08:27:06;;;;;;;12.95;2.38;;;;;;;;;;5074535;28;20071;-80
2022/01/09 08:29:33;;;;;;;10.05;1.30;;;;;;;;;;5091827;28;20036;-80
2022/01/09 08:31:59;;;;;;;7.45;1.23;;;;;;;;;;5091304;28;20035;-79
2022/01/09 08:34:25;;;;;;;4.88;1.05;;;;;;;;;;5091554;28;20609;-79
2022/01/09 08:36:51;;;;;;;11.13;2.13;;;;;;;;;;5074901;28;20040;-79
2022/01/09 08:39:17;;;;;;;4.80;0.88;;;;;;;;;;5075014;28;20079;-80
2022/01/09 08:41:43;;;;;;;9.88;1.83;;;;;;;;;;5074757;28;20506;-78
2022/01/09 08:44:09;;;;;;;6.70;1.23;;;;;;;;;;5074967;28;20476;-79
2022/01/09 08:46:36;;;;;;;3.42;1.17;;;;;;;;;;5091221;28;20036;-79
2022/01/09 08:49:02;;;;;;;6.95;1.20;;;;;;;;;;5091061;28;20480;-78
2022/01/09 08:51:28;;;;;;;9.93;1.95;;;;;;;;;;5091188;28;20126;-79
2022/01/09 08:53:55;;;;;;;8.07;1.35;;;;;;;;;;5074323;28;20452;-79
2022/01/09 08:56:22;;;;;;;10.77;1.65;;;;;;;;;;5091433;28;20062;-79
2022/01/09 08:58:48;;;;;;;8.13;0.80;;;;;;;;;;5090987;28;20488;-81
2022/01/09 09:01:14;;;;;;;12.00;1.63;;;;;;;;;;5073996;28;20126;-79
2022/01/09 09:03:41;;;;;;;2.83;1.20;;;;;;;;;;5073874;28;20040;-80
2022/01/09 09:06:14;;;;;;;6.53;1.23;;;;;;;;;;5073904;28;20048;-80
2022/01/09 09:08:41;;;;;;;3.92;0.80;;;;;;;;;;5090977;28;20503;-79
2022/01/09 09:11:07;;;;;;;5.82;1.20;;;;;;;;;;5090702;28;20506;-79
2022/01/09 09:13:33;;;;;;;6.05;1.33;;;;;;;;;;5090900;28;20059;-78
2022/01/09 09:15:59;;;;;;;5.80;1.10;;;;;;;;;;5074773;28;20040;-77
2022/01/09 09:18:25;;;;;;;3.17;0.90;;;;;;;;;;5091491;28;20036;-79
2022/01/09 09:20:51;;;;;;;10.32;1.27;;;;;;;;;;5074357;28;20063;-78
2022/01/09 09:23:17;;;;;;;2.47;1.17;;;;;;;;;;5073547;28;20063;-78
2022/01/09 09:25:43;;;;;;;5.57;1.73;;;;;;;;;;5073952;28;20500;-79
2022/01/09 09:28:09;;;;;;;11.73;1.73;;;;;;;;;;5074548;28;20071;-79
2022/01/09 09:30:35;;;;;;;4.82;1.27;;;;;;;;;;5074118;28;20131;-80
2022/01/09 09:33:02;;;;;;;7.90;1.45;;;;;;;;;;5074070;28;20043;-80
2022/01/09 09:35:28;;;;;;;6.00;1.58;;;;;;;;;;5073837;28;20036;-81
2022/01/09 09:37:54;;;;;;;6.15;1.50;;;;;;;;;;5073953;28;20113;-78
2022/01/09 09:40:20;;;;;;;7.10;1.90;;;;;;;;;;5094780;28;20044;-79
2022/01/09 09:42:46;;;;;;;8.75;2.22;;;;;;;;;;5078038;28;20048;-79
2022/01/09 09:45:13;;;;;;;13.77;2.17;;;;;;;;;;5094764;28;20043;-81
2022/01/09 09:47:39;;;;;;;5.47;2.13;;;;;;;;;;5076332;28;20040;-78
2022/01/09 09:50:06;;;;;;;7.22;1.38;;;;;;;;;;5072414;28;20039;-79
2022/01/09 09:52:32;;;;;;;6.65;1.73;;;;;;;;;;5090887;28;20044;-79
2022/01/09 09:54:58;;;;;;;6.70;1.35;;;;;;;;;;5091302;28;20074;-79
2022/01/09 09:57:24;;;;;;;12.90;1.60;;;;;;;;;;5091026;28;20044;-79
2022/01/09 09:59:58;;;;;;;8.75;1.58;;;;;;;;;;5090812;28;20491;-79
2022/01/09 10:02:24;;;;;;;7.60;1.58;;;;;;;;;;5090567;28;20051;-78
2022/01/09 10:05:16;;;;;;;6.68;1.48;;;;;;;;;;5074530;28;20089;-81
2022/01/09 10:07:42;;;;;;;8.05;1.48;;;;;;;;;;5086454;28;20051;-77
2022/01/09 10:10:18;;;;;;;11.15;1.55;;;;;;;;;;5091096;28;20036;-79
2022/01/09 10:12:45;;;;;;;7.30;1.60;;;;;;;;;;5073541;28;20048;-78
2022/01/09 10:15:13;;;;;;;10.95;2.22;;;;;;;;;;5090969;28;20105;-81
2022/01/09 10:17:43;;;;;;;4.70;1.05;;;;;;;;;;5090772;28;20106;-80
2022/01/09 10:20:16;;;;;;;10.23;1.70;;;;;;;;;;5090765;28;20054;-78
2022/01/09 10:22:49;;;;;;;5.07;1.20;;;;;;;;;;5073744;28;20052;-77
2022/01/09 10:25:16;;;;;;;8.23;1.23;;;;;;;;;;5073624;28;20036;-79
2022/01/09 10:27:42;;;;;;;8.85;1.35;;;;;;;;;;5090684;28;20437;-80
2022/01/09 10:30:08;;;;;;;6.45;0.90;;;;;;;;;;5073590;28;20492;-78
2022/01/09 10:32:34;;;;;;;7.70;1.08;;;;;;;;;;5073664;28;20135;-78
2022/01/09 10:35:08;;;;;;;3.28;0.88;;;;;;;;;;5091108;28;20047;-78
2022/01/09 10:37:35;;;;;;;8.07;1.55;;;;;;;;;;5090099;28;20071;-77
2022/01/09 10:40:01;;;;;;;8.43;1.63;;;;;;;;;;5090643;28;20165;-78
2022/01/09 10:42:28;;;;;;;4.07;0.80;;;;;;;;;;5090140;28;20048;-79
2022/01/09 10:44:54;;;;;;;6.70;1.85;;;;;;;;;;5074190;28;20048;-77
2022/01/09 10:47:20;;;;;;;7.55;1.17;;;;;;;;;;5090039;28;20043;-78
2022/01/09 10:49:50;;;;;;;7.95;1.38;;;;;;;;;;5089302;28;20572;-78
2022/01/09 10:52:18;;;;;;;4.95;0.93;;;;;;;;;;5072951;28;20348;-77
2022/01/09 10:54:46;;;;;;;4.47;1.52;;;;;;;;;;5090174;28;20047;-81
2022/01/09 10:57:25;;;;;;;5.35;1.30;;;;;;;;;;5072958;28;20052;-78
2022/01/09 10:59:52;;;;;;;5.13;1.20;;;;;;;;;;5090006;28;20105;-77
2022/01/09 11:02:19;;;;;;;5.97;1.05;;;;;;;;;;5073075;28;20122;-80
2022/01/09 11:04:46;;;;;;;6.40;2.00;;;;;;;;;;5089800;28;20054;-79
2022/01/09 11:07:13;;;;;;;9.38;1.80;;;;;;;;;;5089483;28;20044;-80
2022/01/09 11:09:41;;;;;;;6.47;1.40;;;;;;;;;;5090518;28;20054;-77
2022/01/09 11:12:07;;;;;;;7.72;1.42;;;;;;;;;;5073343;28;20054;-78
2022/01/09 11:14:36;;;;;;;8.55;1.75;;;;;;;;;;5089557;28;20091;-77
2022/01/09 11:17:05;;;;;;;7.45;1.20;;;;;;;;;;5072950;28;20750;-80
2022/01/09 11:19:32;;;;;;;6.38;0.98;;;;;;;;;;5072144;28;20120;-80
2022/01/09 11:22:00;;;;;;;3.63;0.98;;;;;;;;;;5072154;28;20044;-79
2022/01/09 11:24:29;;;;;;;5.85;1.50;;;;;;;;;;5072423;28;20040;-78
2022/01/09 11:26:55;;;;;;;4.97;0.90;;;;;;;;;;5072196;28;20068;-77
2022/01/09 11:29:28;;;;;;;6.13;1.45;;;;;;;;;;5089945;28;20069;-78
2022/01/09 11:32:07;;;;;;;7.57;1.52;;;;;;;;;;5088687;28;20094;-79
2022/01/09 11:34:38;;;;;;;5.68;1.25;;;;;;;;;;5072457;28;20116;-78
2022/01/09 11:37:10;;;;;;;5.93;1.33;;;;;;;;;;5071919;28;20044;-76
2022/01/09 11:39:36;;;;;;;6.32;1.70;;;;;;;;;;5072250;28;20139;-77
2022/01/09 11:42:09;;;;;;;4.47;0.82;;;;;;;;;;5072431;28;20044;-75
2022/01/09 11:44:43;;;;;;;6.93;1.13;;;;;;;;;;5072654;28;20281;-78
2022/01/09 11:47:09;;;;;;;6.75;1.70;;;;;;;;;;5089102;28;20093;-80
2022/01/09 11:49:54;;;;;;;3.65;1.25;;;;;;;;;;5071735;28;20429;-78
2022/01/09 11:52:20;;;;;;;4.95;1.30;;;;;;;;;;5088673;28;20048;-79
2022/01/09 11:54:50;;;;;;;7.10;1.42;;;;;;;;;;5088565;28;20080;-78
2022/01/09 11:57:34;;;;;;;3.77;1.20;;;;;;;;;;5071654;28;20061;-79
2022/01/09 12:00:00;;;;;;;9.70;1.55;;;;;;;;;;5088758;28;20404;-79
2022/01/09 12:02:29;;;;;;;4.00;1.02;;;;;;;;;;5070871;28;20044;-79
2022/01/09 12:04:57;;;;;;;6.07;1.40;;;;;;;;;;5088540;28;20118;-78
2022/01/09 12:07:35;;;;;;;7.30;1.25;;;;;;;;;;5072254;28;20484;-81
2022/01/09 12:10:01;;;;;;;10.20;1.95;;;;;;;;;;5071579;28;20484;-78
2022/01/09 12:12:37;;;;;;;9.10;2.15;;;;;;;;;;5071275;28;20075;-79
2022/01/09 12:15:08;;;;;;;5.65;1.00;;;;;;;;;;5087896;28;20079;-78
2022/01/09 12:17:39;;;;;;;;;;;;;;;;;;5078409;28;20047;-80
2022/01/09 12:20:08;;;;;;;5.90;1.30;;;;;;;;;;5075771;28;19920;-78
2022/01/09 12:22:40;;;;;;;9.55;1.30;;;;;;;;;;5077193;28;20044;-77
2022/01/09 12:25:10;;;;;;;7.43;1.25;;;;;;;;;;5075285;28;20098;-78
2022/01/09 12:27:38;;;;;;;5.03;1.50;;;;;;;;;;5077167;28;20040;-76
2022/01/09 12:30:04;;;;;;;7.82;1.13;;;;;;;;;;5077287;28;20044;-79
2022/01/09 12:32:43;;;;;;;4.75;0.90;;;;;;;;;;5075932;28;20040;-78
2022/01/09 12:35:19;;;;;;;9.00;1.67;;;;;;;;;;5075564;28;20493;-77
2022/01/09 12:37:47;;;;;;;5.90;0.88;;;;;;;;;;5075455;28;20050;-78
2022/01/09 12:40:17;;;;;;;4.78;1.08;;;;;;;;;;5077392;28;20142;-80
2022/01/09 12:42:46;;;;;;;5.53;1.30;;;;;;;;;;5077261;28;20045;-78
2022/01/09 12:45:12;;;;;;;9.45;2.13;;;;;;;;;;5092961;28;20040;-79
2022/01/09 12:47:41;;;;;;;4.03;1.17;;;;;;;;;;5076426;28;20119;-78
2022/01/09 12:50:07;;;;;;;3.67;1.00;;;;;;;;;;5077901;28;20070;-79
2022/01/09 12:52:33;;;;;;;4.78;1.50;;;;;;;;;;5075836;28;20447;-78
2022/01/09 12:55:10;;;;;;;5.63;1.40;;;;;;;;;;5076281;28;20127;-77
2022/01/09 12:57:55;;;;;;;10.20;1.83;;;;;;;;;;5084627;28;20040;-79
2022/01/09 13:00:26;;;;;;;12.50;1.38;;;;;;;;;;5071037;28;20092;-77
2022/01/09 13:02:52;;;;;;;7.43;1.10;;;;;;;;;;5086943;28;20040;-79
2022/01/09 13:05:23;;;;;;;9.20;1.77;;;;;;;;;;5070456;28;20084;-76
2022/01/09 13:07:56;;;;;;;2.30;1.02;;;;;;;;;;5087900;28;20419;-78
2022/01/09 13:10:27;;;;;;;10.45;2.42;;;;;;;;;;5071347;28;20051;-81
2022/01/09 13:13:04;;;;;;;6.07;1.23;;;;;;;;;;5086449;28;20059;-76
2022/01/09 13:15:36;;;;;;;5.38;1.70;;;;;;;;;;5087316;28;20488;-79
2022/01/09 13:18:03;;;;;;;5.90;1.50;;;;;;;;;;5070872;28;20169;-78
2022/01/09 13:20:29;;;;;;;3.28;1.23;;;;;;;;;;5070094;28;20130;-78
2022/01/09 13:23:06;;;;;;;6.93;1.65;;;;;;;;;;5086825;28;20044;-79
2022/01/09 13:25:46;;;;;;;6.22;1.38;;;;;;;;;;5070193;28;20477;-77
2022/01/09 13:28:19;;;;;;;7.03;1.17;;;;;;;;;;5087371;28;20076;-77
2022/01/09 13:30:45;;;;;;;3.95;1.25;;;;;;;;;;5087028;28;20043;-77
2022/01/09 13:33:11;;;;;;;4.35;0.85;;;;;;;;;;5087738;28;20051;-80
2022/01/09 13:35:37;;;;;;;4.15;1.17;;;;;;;;;;5066044;28;20502;-79
2022/01/09 13:38:03;;;;;;;9.07;1.67;;;;;;;;;;5076137;28;20415;-80
2022/01/09 13:40:29;;;;;;;3.38;0.88;;;;;;;;;;5075149;28;20051;-78
2022/01/09 13:42:55;;;;;;;4.47;1.17;;;;;;;;;;5059896;28;20040;-76
2022/01/09 13:45:22;;;;;;;4.57;1.00;;;;;;;;;;5075584;28;20057;-80
2022/01/09 13:47:50;;;;;;;7.22;1.20;;;;;;;;;;5075039;28;20112;-77
2022/01/09 13:50:19;;;;;;;6.85;1.20;;;;;;;;;;5076086;28;20036;-76
2022/01/09 13:52:45;;;;;;;6.18;1.08;;;;;;;;;;5076405;28;20049;-80
2022/01/09 13:55:13;;;;;;;3.42;0.88;;;;;;;;;;5074623;28;20051;-80
2022/01/09 13:57:51;;;;;;;4.68;0.65;;;;;;;;;;5076399;28;20043;-79
2022/01/09 14:00:18;;;;;;;3.58;0.95;;;;;;;;;;5083267;28;20498;-77
2022/01/09 14:02:45;;;;;;;6.22;0.77;;;;;;;;;;5078126;28;20089;-80
2022/01/09 14:05:12;;;;;;;3.50;0.90;;;;;;;;;;5076434;28;20487;-79
2022/01/09 14:07:40;;;;;;;5.38;0.80;;;;;;;;;;5074666;28;20036;-79
2022/01/09 14:10:07;;;;;;;6.85;0.90;;;;;;;;;;5074706;28;20063;-78
2022/01/09 14:12:35;;;;;;;2.60;0.55;;;;;;;;;;5076398;28;20389;-79
2022/01/09 14:15:11;;;;;;;2.40;0.60;;;;;;;;;;5074683;28;20048;-81
2022/01/09 14:17:37;;;;;;;5.65;1.02;;;;;;;;;;5090962;28;20043;-76
2022/01/09 14:20:03;;;;;;;2.95;0.95;;;;;;;;;;5075600;28;20078;-75
2022/01/09 14:22:36;;;;;;;3.05;0.85;;;;;;;;;;5075917;28;20064;-81
2022/01/09 14:25:07;;;;;;;6.57;1.25;;;;;;;;;;5083203;28;20163;-78
2022/01/09 14:27:35;;;;;;;1.13;0.45;;;;;;;;;;5080520;28;20101;-79
2022/01/09 14:30:01;;;;;;;5.57;0.82;;;;;;;;;;5078654;28;20052;-77
2022/01/09 14:32:27;;;;;;;6.45;1.02;;;;;;;;;;5084438;28;20044;-79
2022/01/09 14:34:55;;;;;;;3.45;0.60;;;;;;;;;;5090255;28;20442;-79
2022/01/09 14:37:21;;;;;;;4.10;0.85;;;;;;;;;;5089756;28;20044;-79
2022/01/09 14:39:47;;;;;;;4.60;1.00;;;;;;;;;;5089822;28;20377;-79